Time;durP1;ratioP1;P1;durP2;ratioP2;P2;SDS_P1;SDS_P2;PMS_P1;PMS_P2;Temp;Humidity;BMP_temperature;BMP_pressure;BME280_temperature;BME280_humidity;BME280_pressure;Samples;Min_cycle;Max_cycle;Signal;HPM_P1;HPM_P2
2022/05/06 00:00:12;;;;;;;9.88;5.70;;;;;;;6.29;49.01;102452.53;4962874;28;20057;-70
2022/05/06 00:02:38;;;;;;;12.55;5.88;;;;;;;6.28;49.37;102453.38;4958588;28;20102;-71
2022/05/06 00:05:05;;;;;;;11.32;6.45;;;;;;;6.28;48.92;102462.06;4962230;28;20129;-70
2022/05/06 00:07:31;;;;;;;11.90;6.18;;;;;;;6.18;49.23;102455.03;4960183;28;20519;-70
2022/05/06 00:09:56;;;;;;;10.10;6.68;;;;;;;6.14;49.10;102458.47;4961636;28;20049;-71
2022/05/06 00:12:22;;;;;;;11.25;6.20;;;;;;;6.18;49.18;102455.03;4962228;28;20710;-69
2022/05/06 00:14:48;;;;;;;10.80;6.95;;;;;;;6.16;49.22;102455.91;4963129;28;20666;-71
2022/05/06 00:17:14;;;;;;;19.77;7.18;;;;;;;6.22;48.71;102453.34;4960547;28;20038;-70
2022/05/06 00:19:43;;;;;;;11.77;6.20;;;;;;;6.11;49.10;102460.22;4976916;28;20150;-71
2022/05/06 00:22:12;;;;;;;9.63;5.88;;;;;;;6.13;48.88;102459.38;4977142;28;20556;-71
2022/05/06 00:24:38;;;;;;;15.27;5.78;;;;;;;6.03;49.21;102455.84;4962654;28;20085;-72
2022/05/06 00:27:04;;;;;;;8.90;4.88;;;;;;;6.04;49.00;102459.31;4962070;28;20065;-71
2022/05/06 00:29:30;;;;;;;11.07;6.53;;;;;;;6.05;48.79;102458.44;4963689;28;20035;-71
2022/05/06 00:31:55;;;;;;;8.98;5.35;;;;;;;6.04;48.89;102464.53;4973899;28;20097;-71
2022/05/06 00:34:21;;;;;;;14.15;5.95;;;;;;;6.00;48.92;102467.97;4976424;28;20062;-71
2022/05/06 00:36:47;;;;;;;10.85;6.07;;;;;;;5.99;48.86;102467.06;4976690;28;20385;-71
2022/05/06 00:39:12;;;;;;;12.18;5.82;;;;;;;5.98;48.68;102475.72;4975176;28;20038;-69
2022/05/06 00:41:38;;;;;;;10.27;5.75;;;;;;;5.97;48.89;102474.00;4961648;28;20068;-73
2022/05/06 00:44:08;;;;;;;11.20;6.63;;;;;;;6.01;48.93;102473.13;4958888;28;20075;-69
2022/05/06 00:46:36;;;;;;;10.90;6.30;;;;;;;5.95;49.43;102470.53;4960287;28;20038;-69
2022/05/06 00:49:02;;;;;;;11.38;6.45;;;;;;;5.95;49.40;102473.13;4973572;28;20046;-69
2022/05/06 00:51:28;;;;;;;11.90;6.55;;;;;;;5.97;49.46;102470.50;4979411;28;20487;-69
2022/05/06 00:53:56;;;;;;;9.63;5.25;;;;;;;5.88;49.21;102468.75;4973538;28;20055;-69
2022/05/06 00:56:25;;;;;;;7.60;5.05;;;;;;;5.85;49.52;102463.53;4975284;28;20034;-73
2022/05/06 00:58:52;;;;;;;11.23;5.30;;;;;;;5.82;49.52;102471.31;4963235;28;20050;-74
2022/05/06 01:01:19;;;;;;;9.73;5.85;;;;;;;5.67;49.42;102472.09;4963682;28;20037;-70
2022/05/06 01:03:47;;;;;;;9.63;5.07;;;;;;;5.49;49.71;102477.16;4959864;28;20043;-70
2022/05/06 01:06:13;;;;;;;11.93;6.30;;;;;;;5.32;50.14;102474.44;4959884;28;20077;-69
2022/05/06 01:08:43;;;;;;;10.15;5.88;;;;;;;5.41;49.93;102475.41;4960196;28;20290;-73
2022/05/06 01:11:12;;;;;;;11.27;5.45;;;;;;;5.45;50.21;102468.50;4944974;28;20518;-73
2022/05/06 01:13:43;;;;;;;8.77;5.20;;;;;;;5.38;50.04;102474.50;4978271;28;20121;-68
2022/05/06 01:16:12;;;;;;;12.23;5.93;;;;;;;5.44;50.08;102479.72;4943476;28;20061;-68
2022/05/06 01:18:42;;;;;;;11.63;5.60;;;;;;;5.49;49.99;102478.03;4974933;28;20047;-69
2022/05/06 01:21:09;;;;;;;11.68;5.00;;;;;;;5.51;49.95;102476.31;4959688;28;20037;-68
2022/05/06 01:23:35;;;;;;;11.00;5.30;;;;;;;5.45;50.05;102474.53;4942613;28;20047;-69
2022/05/06 01:26:00;;;;;;;8.57;5.03;;;;;;;5.37;49.88;102473.63;4974144;28;20043;-68
2022/05/06 01:28:27;;;;;;;12.00;6.88;;;;;;;5.22;50.12;102479.56;4959906;28;20054;-69
2022/05/06 01:31:00;;;;;;;9.60;4.88;;;;;;;5.12;50.42;102476.88;4961121;28;20169;-70
2022/05/06 01:33:28;;;;;;;11.30;5.50;;;;;;;5.08;50.63;102480.28;4960701;28;20038;-69
2022/05/06 01:35:58;;;;;;;10.50;5.07;;;;;;;5.08;50.14;102481.19;4959867;28;20043;-72
2022/05/06 01:39:02;;;;;;;9.27;4.93;;;;;;;5.03;50.63;102483.72;4977127;28;20115;-71
2022/05/06 01:41:35;;;;;;;13.23;4.60;;;;;;;5.07;50.75;102479.44;4940822;28;20043;-73
2022/05/06 01:44:16;;;;;;;7.63;4.20;;;;;;;5.08;50.54;102485.47;4976143;28;20035;-76
2022/05/06 01:46:44;;;;;;;11.32;5.53;;;;;;;4.89;50.63;102474.94;4946809;28;20038;-74
2022/05/06 01:49:18;;;;;;;14.88;5.85;;;;;;;4.76;50.76;102484.28;4962700;28;20403;-72
2022/05/06 01:51:46;;;;;;;9.93;5.50;;;;;;;4.68;51.14;102485.09;4980356;28;20054;-70
2022/05/06 01:54:16;;;;;;;10.90;5.88;;;;;;;4.57;51.34;102483.22;4984430;28;20038;-73
2022/05/06 01:56:46;;;;;;;12.60;6.18;;;;;;;4.56;51.41;102478.03;4983906;28;20046;-71
2022/05/06 01:59:12;;;;;;;13.23;4.95;;;;;;;4.52;51.55;102476.25;4981223;28;20037;-70
2022/05/06 02:01:38;;;;;;;10.30;5.05;;;;;;;4.49;51.82;102474.50;4969266;28;20101;-70
2022/05/06 02:06:49;;;;;;;9.70;5.07;;;;;;;4.35;51.96;102471.75;4984427;28;20038;-74
2022/05/06 02:09:19;;;;;;;9.43;5.32;;;;;;;4.27;52.26;102473.38;4966074;28;20033;-73
2022/05/06 02:12:01;;;;;;;9.73;4.80;;;;;;;4.21;52.15;102478.50;4966221;28;20042;-74
2022/05/06 02:14:38;;;;;;;8.38;4.93;;;;;;;4.17;52.30;102477.59;4966811;28;20038;-73
2022/05/06 02:17:18;;;;;;;7.97;4.13;;;;;;;4.20;52.81;102471.56;4981474;28;20045;-74
2022/05/06 02:20:04;;;;;;;9.52;4.03;;;;;;;4.19;52.51;102475.03;4981495;28;20105;-73
2022/05/06 02:22:55;;;;;;;16.02;5.07;;;;;;;4.17;52.63;102481.91;4961811;28;20046;-72
2022/05/06 02:25:42;;;;;;;7.53;4.38;;;;;;;4.16;52.55;102480.16;4966100;28;20038;-73
2022/05/06 02:28:17;;;;;;;8.00;4.38;;;;;;;4.24;52.62;102472.50;4984320;28;20125;-75
2022/05/06 02:33:37;;;;;;;8.45;4.93;;;;;;;4.27;52.70;102468.19;4982746;28;20078;-74
2022/05/06 02:36:09;;;;;;;7.00;3.97;;;;;;;4.17;52.59;102474.13;4952679;28;20018;-72
2022/05/06 02:38:36;;;;;;;7.82;3.70;;;;;;;4.05;52.48;102461.03;4981664;28;20116;-72
2022/05/06 02:41:02;;;;;;;7.78;4.38;;;;;;;4.08;52.53;102474.03;4970526;28;20023;-74
2022/05/06 02:43:37;;;;;;;7.35;3.78;;;;;;;4.14;52.73;102468.91;4985721;28;20034;-75
2022/05/06 02:46:03;;;;;;;10.10;4.70;;;;;;;4.18;52.52;102466.38;4977296;28;20031;-73
2022/05/06 02:48:28;;;;;;;9.43;5.55;;;;;;;4.23;52.68;102476.81;4985339;28;20516;-74
2022/05/06 02:50:54;;;;;;;7.80;5.10;;;;;;;4.28;52.56;102480.31;4953287;28;20034;-72
2022/05/06 02:53:21;;;;;;;12.02;5.53;;;;;;;4.17;52.52;102475.00;4984762;28;20062;-75
2022/05/06 02:55:46;;;;;;;9.02;4.30;;;;;;;4.11;52.50;102471.47;4967994;28;20447;-73
2022/05/06 02:58:12;;;;;;;12.95;5.30;;;;;;;4.04;52.59;102472.25;4985798;28;20039;-73
2022/05/06 03:00:38;;;;;;;11.98;5.65;;;;;;;3.97;52.98;102477.34;4970017;28;20038;-72
2022/05/06 03:03:07;;;;;;;10.18;6.13;;;;;;;4.00;53.15;102466.16;4967279;28;20178;-74
2022/05/06 03:05:37;;;;;;;12.13;5.50;;;;;;;4.03;53.17;102466.22;4957187;28;20027;-75
2022/05/06 03:08:05;;;;;;;9.05;4.70;;;;;;;4.02;52.92;102470.50;4969331;28;20039;-73
2022/05/06 03:10:31;;;;;;;13.07;5.72;;;;;;;3.94;52.89;102463.47;4982465;28;20090;-71
2022/05/06 03:12:58;;;;;;;13.75;6.40;;;;;;;3.90;53.15;102462.59;4979473;28;20413;-70
2022/05/06 03:15:25;;;;;;;15.27;6.50;;;;;;;3.87;53.00;102472.88;4964735;28;20061;-72
2022/05/06 03:18:07;;;;;;;12.85;6.05;;;;;;;3.82;53.28;102466.78;4962625;28;20046;-71
2022/05/06 03:20:32;;;;;;;9.95;4.88;;;;;;;3.78;53.45;102465.88;4982675;28;20078;-72
2022/05/06 03:22:58;;;;;;;13.77;6.35;;;;;;;3.82;53.47;102459.00;4966454;28;20082;-74
2022/05/06 03:25:24;;;;;;;12.80;5.88;;;;;;;4.01;53.23;102457.56;4983250;28;20546;-73
2022/05/06 03:28:07;;;;;;;12.88;6.43;;;;;;;4.13;52.91;102459.41;4968108;28;20038;-72
2022/05/06 03:30:45;;;;;;;11.57;6.40;;;;;;;4.29;52.66;102457.88;4970414;28;20368;-73
2022/05/06 03:33:34;;;;;;;17.20;7.07;;;;;;;4.27;52.61;102455.25;4964762;28;20102;-74
2022/05/06 03:36:10;;;;;;;17.17;7.47;;;;;;;4.28;52.86;102453.56;4984483;28;20102;-75
2022/05/06 03:38:43;;;;;;;19.67;7.93;;;;;;;4.39;52.89;102454.56;4967022;28;20098;-72
2022/05/06 03:41:09;;;;;;;15.52;8.05;;;;;;;4.45;52.45;102451.16;4968101;28;20035;-75
2022/05/06 03:43:35;;;;;;;17.85;8.00;;;;;;;4.51;52.44;102456.41;4984017;28;20039;-75
2022/05/06 03:46:12;;;;;;;16.38;7.18;;;;;;;4.53;52.41;102455.56;4968003;28;20096;-73
2022/05/06 03:48:38;;;;;;;15.25;7.65;;;;;;;4.43;52.41;102457.19;4982846;28;20109;-72
2022/05/06 03:51:22;;;;;;;17.98;6.82;;;;;;;4.37;52.02;102454.53;4964769;28;20073;-74
2022/05/06 03:53:56;;;;;;;15.93;7.47;;;;;;;4.47;52.61;102454.63;4976778;28;20081;-72
2022/05/06 03:56:25;;;;;;;22.38;8.98;;;;;;;4.46;52.37;102458.94;4964877;28;20046;-72
2022/05/06 03:58:52;;;;;;;11.27;6.78;;;;;;;4.42;52.01;102452.84;4958278;28;20051;-73
2022/05/06 04:01:19;;;;;;;16.60;7.78;;;;;;;4.43;52.46;102452.03;4946243;28;20034;-74
2022/05/06 04:03:48;;;;;;;13.30;7.10;;;;;;;4.54;52.62;102453.84;4974309;28;20039;-71
2022/05/06 04:06:15;;;;;;;20.35;8.20;;;;;;;4.63;52.46;102453.94;4961476;28;20096;-71
2022/05/06 04:08:44;;;;;;;18.27;8.15;;;;;;;4.69;52.28;102454.00;4957768;28;20050;-71
2022/05/06 04:11:12;;;;;;;14.75;8.05;;;;;;;4.82;52.41;102458.44;4960697;28;20251;-74
2022/05/06 04:13:41;;;;;;;18.30;7.45;;;;;;;5.12;51.94;102467.38;4961266;28;20050;-75
2022/05/06 04:16:07;;;;;;;19.00;9.35;;;;;;;5.37;51.66;102462.38;4962327;28;20026;-74
2022/05/06 04:18:33;;;;;;;15.35;7.88;;;;;;;5.55;51.76;102459.06;4962270;28;20456;-76
2022/05/06 04:23:43;;;;;;;18.85;9.80;;;;;;;5.69;50.98;102465.19;4964229;28;20055;-76
2022/05/06 04:26:14;;;;;;;20.65;8.98;;;;;;;5.81;51.17;102462.66;4977797;28;20023;-75
2022/05/06 04:28:50;;;;;;;16.85;8.73;;;;;;;5.99;51.08;102459.28;4976884;28;20576;-77
2022/05/06 04:31:17;;;;;;;19.55;9.57;;;;;;;6.25;50.43;102471.50;4965293;28;20090;-76
2022/05/06 04:33:45;;;;;;;15.40;7.38;;;;;;;6.45;50.61;102469.88;4946362;28;20432;-76
2022/05/06 04:36:19;;;;;;;21.08;10.10;;;;;;;6.60;50.37;102470.78;4978490;28;20049;-75
2022/05/06 04:38:49;;;;;;;21.83;9.73;;;;;;;6.65;49.82;102458.66;4960864;28;20408;-78
2022/05/06 04:41:18;;;;;;;22.80;9.70;;;;;;;6.80;49.50;102470.84;4979442;28;20536;-76
2022/05/06 04:43:44;;;;;;;30.70;12.30;;;;;;;6.90;49.71;102478.63;4960412;28;20050;-76
2022/05/06 04:46:09;;;;;;;20.45;11.07;;;;;;;6.95;49.35;102464.75;4960670;28;21221;-75
2022/05/06 04:48:36;;;;;;;25.75;11.07;;;;;;;7.05;49.93;102467.38;4962525;28;20066;-75
2022/05/06 04:51:04;;;;;;;19.48;10.60;;;;;;;7.37;50.13;102470.81;4949566;28;20215;-76
2022/05/06 04:53:30;;;;;;;23.48;11.95;;;;;;;7.55;49.82;102468.22;4966324;28;20193;-75
2022/05/06 04:55:56;;;;;;;18.35;10.18;;;;;;;7.96;49.91;102475.06;4961410;28;20037;-75
2022/05/06 04:58:37;;;;;;;20.95;11.00;;;;;;;8.44;49.15;102467.03;4962630;28;20121;-75
2022/05/06 05:01:05;;;;;;;20.25;11.07;;;;;;;8.96;48.69;102465.00;4961946;28;20082;-75
2022/05/06 05:03:33;;;;;;;25.55;11.82;;;;;;;9.96;46.17;102458.78;4962283;28;20141;-75
2022/05/06 05:06:00;;;;;;;17.60;10.35;;;;;;;11.23;44.84;102457.81;4977809;28;20112;-76
2022/05/06 05:08:26;;;;;;;20.88;9.85;;;;;;;11.50;41.60;102458.22;4977777;28;20043;-76
2022/05/06 05:10:52;;;;;;;20.88;9.85;;;;;;;11.80;40.55;102455.03;4960178;28;20517;-75
2022/05/06 05:13:22;;;;;;;17.95;10.60;;;;;;;11.62;41.97;102465.81;4959735;28;20042;-74
2022/05/06 05:15:47;;;;;;;18.58;10.60;;;;;;;10.80;42.52;102463.75;4976081;28;20046;-75
2022/05/06 05:18:13;;;;;;;16.02;9.13;;;;;;;10.60;43.36;102466.66;4961270;28;20038;-75
2022/05/06 05:20:40;;;;;;;21.75;9.25;;;;;;;10.32;43.53;102460.94;4943799;28;20055;-77
2022/05/06 05:23:06;;;;;;;14.25;7.90;;;;;;;10.19;44.46;102461.13;4975070;28;20169;-76
2022/05/06 05:25:35;;;;;;;16.05;9.18;;;;;;;10.08;44.17;102467.34;4973301;28;20057;-73
2022/05/06 05:28:01;;;;;;;18.42;8.90;;;;;;;9.94;44.84;102464.91;4960395;28;20039;-75
2022/05/06 05:30:34;;;;;;;13.07;8.50;;;;;;;9.84;44.83;102461.56;4958839;28;20023;-76
2022/05/06 05:33:01;;;;;;;14.18;8.90;;;;;;;9.96;45.02;102465.75;4974081;28;20193;-75
2022/05/06 05:35:29;;;;;;;18.42;9.85;;;;;;;10.19;44.59;102460.25;4945655;28;20065;-75
2022/05/06 05:38:00;;;;;;;22.02;8.93;;;;;;;10.96;44.48;102470.47;4963172;28;20416;-77
2022/05/06 05:40:26;;;;;;;14.20;8.00;;;;;;;12.74;42.15;102463.50;4981136;28;20030;-77
2022/05/06 05:42:53;;;;;;;19.52;9.05;;;;;;;16.34;36.24;102461.03;4963261;28;20330;-76
2022/05/06 05:48:21;;;;;;;16.75;8.23;;;;;;;16.06;32.31;102455.09;4979368;28;20166;-76
2022/05/06 05:50:52;;;;;;;14.05;8.43;;;;;;;14.46;35.13;102461.47;4978936;28;20030;-76
2022/05/06 05:53:23;;;;;;;12.70;7.88;;;;;;;13.86;36.28;102460.59;4982852;28;20049;-76
2022/05/06 05:55:50;;;;;;;14.10;8.15;;;;;;;13.36;37.36;102460.22;4963646;28;20500;-76
2022/05/06 05:58:19;;;;;;;20.05;8.63;;;;;;;12.68;38.75;102464.47;4979845;28;20062;-76
2022/05/06 06:00:48;;;;;;;15.13;8.05;;;;;;;12.60;40.50;102462.91;4949864;28;20150;-76
2022/05/06 06:03:15;;;;;;;13.20;8.13;;;;;;;12.54;41.14;102461.31;4967516;28;20118;-76
2022/05/06 06:05:42;;;;;;;12.48;7.70;;;;;;;12.94;40.35;102456.88;4995875;28;20018;-75
2022/05/06 06:08:09;;;;;;;14.38;7.63;;;;;;;12.81;40.79;102462.47;4985291;28;20047;-77
2022/05/06 06:10:37;;;;;;;17.17;8.82;;;;;;;12.57;41.75;102458.63;4985663;28;20026;-77
2022/05/06 06:13:06;;;;;;;17.20;8.35;;;;;;;13.03;41.18;102457.53;4983698;28;20039;-77
2022/05/06 06:15:36;;;;;;;15.15;9.25;;;;;;;13.17;39.56;102465.06;4986460;28;20061;-76
2022/05/06 06:18:03;;;;;;;14.52;8.57;;;;;;;13.06;40.15;102467.09;4979860;28;20043;-75
2022/05/06 06:20:29;;;;;;;17.60;8.45;;;;;;;13.13;39.35;102462.56;5033612;22;20065;-72
2022/05/06 06:22:54;;;;;;;13.25;8.13;;;;;;;13.08;40.72;102455.66;4972260;28;20157;-72
2022/05/06 06:25:20;;;;;;;13.73;9.10;;;;;;;13.58;39.95;102470.16;4980387;28;20030;-73
2022/05/06 06:27:46;;;;;;;15.93;8.68;;;;;;;13.60;40.17;102455.19;4978708;28;20050;-73
2022/05/06 06:30:13;;;;;;;15.75;9.45;;;;;;;14.14;39.42;102454.50;4977741;28;20027;-72
2022/05/06 06:32:39;;;;;;;21.33;8.65;;;;;;;14.17;38.22;102457.06;4964146;28;20546;-72
2022/05/06 06:35:08;;;;;;;15.07;7.93;;;;;;;13.99;37.86;102461.09;4961095;28;20035;-72
2022/05/06 06:37:42;;;;;;;14.98;8.18;;;;;;;13.09;39.48;102462.66;4977571;28;20439;-72
2022/05/06 06:40:09;;;;;;;13.38;7.90;;;;;;;13.70;38.96;102464.56;4960298;28;20030;-73
2022/05/06 06:42:34;;;;;;;14.43;7.28;;;;;;;13.75;38.12;102465.28;4961977;28;20038;-73
2022/05/06 06:45:14;;;;;;;17.80;7.90;;;;;;;13.53;38.27;102457.09;4976244;28;20084;-72
2022/05/06 06:48:08;;;;;;;12.63;6.65;;;;;;;14.07;38.01;102452.97;4937555;28;20065;-72
2022/05/06 06:50:58;;;;;;;15.25;7.22;;;;;;;14.77;37.36;102460.50;4937212;28;20181;-73
2022/05/06 06:53:27;;;;;;;10.10;6.50;;;;;;;15.02;36.37;102464.94;4959210;28;20093;-73
2022/05/06 06:55:53;;;;;;;13.98;7.20;;;;;;;14.20;36.53;102464.00;4963412;28;20117;-72
2022/05/06 06:58:18;;;;;;;11.55;6.63;;;;;;;14.28;37.08;102468.13;4960698;28;20030;-72
2022/05/06 07:00:44;;;;;;;9.85;7.28;;;;;;;14.25;35.93;102468.19;4962795;28;20479;-72
2022/05/06 07:03:10;;;;;;;9.98;6.95;;;;;;;14.50;36.24;102470.09;4978826;28;20058;-73
2022/05/06 07:05:36;;;;;;;11.95;7.35;;;;;;;14.66;35.03;102468.72;4963803;28;20045;-72
2022/05/06 07:13:41;;;;;;;14.18;7.03;;;;;;;15.37;34.42;102459.34;4921303;28;20616;-73
2022/05/06 07:16:07;;;;;;;10.48;6.38;;;;;;;14.54;35.42;102466.47;4965157;28;20133;-73
2022/05/06 07:18:32;;;;;;;12.90;8.02;;;;;;;15.41;34.63;102460.09;4962855;28;20046;-72
2022/05/06 07:20:58;;;;;;;15.23;7.22;;;;;;;15.87;35.09;102461.06;4974311;28;20444;-73
2022/05/06 07:23:24;;;;;;;18.73;7.90;;;;;;;15.58;34.27;102465.63;4957029;28;20059;-73
2022/05/06 07:25:49;;;;;;;11.35;7.70;;;;;;;16.46;33.08;102469.38;4940233;28;20034;-74
2022/05/06 07:28:15;;;;;;;20.38;8.52;;;;;;;17.39;32.43;102467.31;4976577;28;20130;-73
2022/05/06 07:30:40;;;;;;;18.55;9.23;;;;;;;17.84;31.03;102474.13;4956789;28;20039;-73
2022/05/06 07:33:06;;;;;;;21.20;8.98;;;;;;;18.24;29.95;102467.00;4961650;28;20042;-72
2022/05/06 07:35:32;;;;;;;14.88;9.00;;;;;;;17.98;30.88;102468.19;4941706;28;20050;-71
2022/05/06 07:37:57;;;;;;;19.42;8.95;;;;;;;17.88;30.70;102470.41;4940300;28;20051;-72
2022/05/06 07:40:23;;;;;;;20.70;8.95;;;;;;;18.86;29.88;102481.63;4961439;28;20038;-73
2022/05/06 07:42:50;;;;;;;17.38;9.23;;;;;;;19.55;28.19;102479.94;4958677;28;20071;-72
2022/05/06 07:45:16;;;;;;;18.83;9.43;;;;;;;19.95;27.40;102485.75;4974752;28;20049;-72
2022/05/06 07:47:42;;;;;;;18.35;9.23;;;;;;;20.86;25.84;102478.84;4958022;28;20082;-73
2022/05/06 07:50:07;;;;;;;17.40;9.95;;;;;;;22.76;25.12;102470.59;4962747;28;20551;-72
2022/05/06 07:52:33;;;;;;;17.33;9.35;;;;;;;24.16;23.11;102472.38;4953118;28;20492;-73
2022/05/06 07:54:58;;;;;;;18.30;7.95;;;;;;;25.98;20.86;102471.88;4973039;28;20077;-73
2022/05/06 07:57:24;;;;;;;17.17;8.23;;;;;;;24.65;21.27;102474.09;4962079;28;20117;-74
2022/05/06 07:59:49;;;;;;;18.58;9.75;;;;;;;22.31;24.00;102478.00;4941032;28;20082;-74
2022/05/06 08:04:59;;;;;;;14.98;9.27;;;;;;;20.93;26.75;102477.56;4961918;28;20493;-74
2022/05/06 08:07:25;;;;;;;15.93;9.27;;;;;;;20.85;26.17;102465.69;4960259;28;20044;-74
2022/05/06 08:09:50;;;;;;;13.88;7.78;;;;;;;20.29;26.43;102468.81;4960936;28;20039;-74
2022/05/06 08:12:16;;;;;;;18.05;8.93;;;;;;;23.41;23.21;102462.59;4961784;28;20371;-74
2022/05/06 08:14:42;;;;;;;15.48;9.45;;;;;;;22.18;24.66;102467.28;4958798;28;20117;-74
2022/05/06 08:17:08;;;;;;;17.40;8.43;;;;;;;20.67;26.18;102475.56;4959608;28;20069;-73
2022/05/06 08:19:34;;;;;;;16.55;9.10;;;;;;;20.16;27.63;102469.56;4953867;28;20035;-74
2022/05/06 08:22:00;;;;;;;14.90;9.35;;;;;;;20.86;25.95;102473.53;4959632;28;20054;-74
2022/05/06 08:24:33;;;;;;;16.98;9.88;;;;;;;21.62;25.10;102469.88;4959830;28;20069;-75
2022/05/06 08:27:01;;;;;;;16.80;8.30;;;;;;;23.07;23.90;102465.84;4962850;28;20130;-72
2022/05/06 08:29:28;;;;;;;18.13;9.23;;;;;;;23.46;22.73;102469.44;4960854;28;20033;-72
2022/05/06 08:31:54;;;;;;;20.98;9.70;;;;;;;24.70;21.19;102468.41;4956644;28;20039;-73
2022/05/06 08:34:19;;;;;;;11.20;8.57;;;;;;;24.81;21.68;102457.75;4958492;28;20034;-73
2022/05/06 08:36:45;;;;;;;15.85;9.60;;;;;;;26.81;19.75;102462.34;4956187;28;20442;-73
2022/05/06 08:39:14;;;;;;;18.55;9.32;;;;;;;25.40;20.74;102455.94;4960351;28;20947;-73
2022/05/06 08:41:40;;;;;;;14.13;8.95;;;;;;;23.55;22.75;102450.94;4959000;28;20046;-73
2022/05/06 08:52:32;;;;;;;19.88;12.13;;;;;;;24.71;22.70;102453.25;4959989;28;20041;-74
2022/05/06 08:55:00;;;;;;;19.95;12.10;;;;;;;24.19;22.45;102456.16;4961421;28;20053;-74
2022/05/06 08:57:26;;;;;;;19.50;10.90;;;;;;;25.72;21.90;102448.03;4956521;28;20058;-73
2022/05/06 08:59:52;;;;;;;21.83;10.63;;;;;;;25.49;21.08;102447.19;4958766;28;20027;-74
2022/05/06 09:02:19;;;;;;;15.80;9.95;;;;;;;25.79;21.17;102449.25;4959213;28;20055;-74
2022/05/06 09:04:44;;;;;;;17.05;10.18;;;;;;;26.66;21.34;102449.25;4953843;28;20443;-75
2022/05/06 09:07:20;;;;;;;20.65;13.00;;;;;;;24.68;21.69;102445.44;4954197;28;20046;-74
2022/05/06 09:10:21;;;;;;;21.52;12.07;;;;;;;25.21;21.73;102443.16;4957648;28;20251;-73
2022/05/06 09:12:51;;;;;;;18.25;9.43;;;;;;;25.23;21.24;102451.91;4863041;29;20163;-74
2022/05/06 09:18:03;;;;;;;22.05;13.00;;;;;;;24.28;22.82;102456.41;4958842;28;20141;-74
2022/05/06 09:20:28;;;;;;;17.15;11.48;;;;;;;25.09;22.84;102452.16;4964922;28;20034;-74
2022/05/06 09:22:56;;;;;;;23.33;11.82;;;;;;;23.35;24.64;102452.34;4959501;28;20164;-72
2022/05/06 09:25:52;;;;;;;20.17;11.55;;;;;;;23.28;24.50;102459.09;4964349;28;20526;-74
2022/05/06 09:28:23;;;;;;;20.05;10.77;;;;;;;21.73;25.61;102461.25;4959889;28;20157;-73
2022/05/06 09:31:06;;;;;;;24.73;11.50;;;;;;;21.45;26.76;102462.09;4962482;28;20042;-74
2022/05/06 09:33:42;;;;;;;26.05;14.23;;;;;;;21.70;27.00;102453.47;4958748;28;20047;-73
2022/05/06 09:36:30;;;;;;;25.83;14.25;;;;;;;22.67;25.58;102465.84;4958790;28;20481;-74
2022/05/06 09:39:04;;;;;;;21.30;12.27;;;;;;;22.52;25.20;102455.28;4952323;28;20641;-74
2022/05/06 09:41:30;;;;;;;22.02;12.60;;;;;;;22.35;25.69;102452.88;4961454;28;20670;-73
2022/05/06 09:44:00;;;;;;;19.48;11.80;;;;;;;20.44;28.52;102458.25;4940528;28;20405;-74
2022/05/06 09:46:26;;;;;;;18.85;11.80;;;;;;;20.52;28.38;102458.69;4959269;28;20038;-74
2022/05/06 09:48:58;;;;;;;18.27;11.40;;;;;;;21.78;27.55;102453.84;4952689;28;20065;-74
2022/05/06 09:51:33;;;;;;;16.88;9.25;;;;;;;21.94;26.00;102453.72;4958850;28;20030;-73
2022/05/06 09:54:00;;;;;;;15.35;9.00;;;;;;;21.20;27.10;102457.38;4953483;28;20058;-74
2022/05/06 09:56:27;;;;;;;13.63;8.15;;;;;;;22.10;25.26;102457.13;4962175;28;20058;-75
2022/05/06 09:58:54;;;;;;;15.18;9.05;;;;;;;20.43;27.45;102457.41;4971916;28;20055;-74
2022/05/06 10:01:21;;;;;;;19.25;10.07;;;;;;;21.50;27.17;102450.22;4959972;28;20445;-74
2022/05/06 10:03:47;;;;;;;19.15;11.25;;;;;;;21.39;27.92;102451.81;4960360;28;20089;-73
2022/05/06 10:06:13;;;;;;;25.25;12.88;;;;;;;21.63;26.89;102450.31;4961791;28;20038;-73
2022/05/06 10:08:46;;;;;;;19.95;10.30;;;;;;;21.47;26.79;102446.91;4956758;28;20161;-74
2022/05/06 10:11:14;;;;;;;15.60;9.05;;;;;;;21.28;26.12;102450.66;4962096;28;20061;-74
2022/05/06 10:13:46;;;;;;;13.43;8.35;;;;;;;20.40;27.65;102452.28;4960649;28;20049;-73
2022/05/06 10:16:12;;;;;;;12.43;7.07;;;;;;;21.06;27.33;102440.47;4961795;28;20046;-73
2022/05/06 10:18:40;;;;;;;18.92;8.27;;;;;;;21.29;26.88;102435.59;4958685;28;20555;-74
2022/05/06 10:21:10;;;;;;;15.38;9.32;;;;;;;19.81;28.51;102441.38;4974257;28;20094;-73
2022/05/06 10:23:45;;;;;;;17.65;9.15;;;;;;;20.00;28.46;102433.28;4941869;28;20053;-74
2022/05/06 10:26:36;;;;;;;14.38;7.75;;;;;;;21.12;27.98;102437.44;4966446;28;20190;-74
2022/05/06 10:34:35;;;;;;;11.57;6.35;;;;;;;21.58;26.99;102441.78;4965990;28;20037;-74
2022/05/06 10:37:03;;;;;;;9.77;6.00;;;;;;;21.13;26.35;102435.63;4960066;28;20045;-74
2022/05/06 10:39:36;;;;;;;11.25;5.88;;;;;;;21.95;25.43;102428.78;4965888;28;20186;-73
2022/05/06 10:42:09;;;;;;;11.25;5.22;;;;;;;23.53;25.51;102431.53;4957589;28;20050;-74
2022/05/06 10:44:42;;;;;;;9.88;6.88;;;;;;;22.70;25.75;102431.06;4963701;28;20121;-73
2022/05/06 10:47:19;;;;;;;13.90;7.82;;;;;;;22.82;26.34;102430.22;4965100;28;20043;-73
2022/05/06 10:49:46;;;;;;;14.30;6.53;;;;;;;23.64;24.91;102428.09;4962021;28;20050;-74
2022/05/06 10:52:35;;;;;;;12.55;6.85;;;;;;;23.34;24.68;102426.66;4961283;28;20499;-74
2022/05/06 10:55:03;;;;;;;10.18;6.55;;;;;;;24.09;23.71;102427.56;4961554;28;20413;-74
2022/05/06 10:57:44;;;;;;;9.77;6.95;;;;;;;23.86;24.79;102427.44;4964065;28;20528;-75
2022/05/06 11:00:10;;;;;;;12.07;7.00;;;;;;;22.86;25.71;102431.72;4964210;28;20050;-74
2022/05/06 11:02:38;;;;;;;8.43;6.55;;;;;;;23.23;25.36;102418.50;4965921;28;20598;-75
2022/05/06 11:05:07;;;;;;;8.55;5.85;;;;;;;22.97;25.58;102423.84;4963130;28;20536;-74
2022/05/06 11:07:38;;;;;;;11.23;6.00;;;;;;;22.52;25.02;102422.47;4975491;28;20048;-74
2022/05/06 11:10:12;;;;;;;8.13;6.00;;;;;;;22.79;24.99;102419.78;4959653;28;20038;-75
2022/05/06 11:12:47;;;;;;;6.20;5.03;;;;;;;22.52;25.33;102417.97;4942489;28;20248;-75
2022/05/06 11:15:20;;;;;;;7.35;4.70;;;;;;;22.39;24.44;102406.44;4958108;28;20031;-74
2022/05/06 11:17:46;;;;;;;4.63;2.72;;;;;;;22.09;23.88;102411.94;4960735;28;20573;-75
2022/05/06 11:20:21;;;;;;;7.47;4.05;;;;;;;22.82;24.94;102414.22;4962894;28;20097;-74
2022/05/06 11:23:04;;;;;;;5.25;2.38;;;;;;;22.88;23.95;102415.63;4955914;28;20420;-74
2022/05/06 11:25:32;;;;;;;3.25;2.00;;;;;;;23.20;24.45;102413.38;4959432;28;20122;-73
2022/05/06 11:28:00;;;;;;;3.97;2.50;;;;;;;23.55;23.29;102410.91;4959683;28;20058;-74
2022/05/06 11:30:27;;;;;;;2.67;2.05;;;;;;;23.31;23.17;102405.50;4959153;28;20118;-72
2022/05/06 11:32:58;;;;;;;3.50;2.00;;;;;;;23.32;23.15;102407.22;4972334;28;20054;-73
2022/05/06 11:35:45;;;;;;;3.47;1.42;;;;;;;23.77;22.81;102402.22;4962304;28;20288;-73
2022/05/06 11:38:11;;;;;;;3.35;1.80;;;;;;;23.55;23.00;102407.41;4960305;28;20031;-74
2022/05/06 11:40:37;;;;;;;2.78;1.48;;;;;;;23.28;24.02;102403.06;4957341;28;20507;-74
2022/05/06 11:43:04;;;;;;;2.72;1.27;;;;;;;23.65;22.77;102396.91;4956624;28;20053;-74
2022/05/06 11:48:18;;;;;;;3.15;0.73;;;;;;;23.26;23.27;102391.63;4959639;28;20112;-74
2022/05/06 11:50:45;;;;;;;5.93;1.17;;;;;;;22.71;23.25;102400.78;4959156;28;20022;-74
2022/05/06 11:53:13;;;;;;;1.77;0.70;;;;;;;23.34;23.54;102394.63;4940045;28;20133;-74
2022/05/06 11:55:41;;;;;;;1.10;1.00;;;;;;;22.77;23.71;102393.22;4959431;28;20048;-73
2022/05/06 11:58:11;;;;;;;1.25;0.70;;;;;;;21.97;24.37;102385.16;4945218;28;20412;-74
2022/05/06 12:00:37;;;;;;;2.10;1.30;;;;;;;22.27;23.35;102385.91;4944889;28;20080;-74
2022/05/06 12:03:05;;;;;;;1.73;1.10;;;;;;;22.34;23.84;102393.41;4950541;28;20082;-74
2022/05/06 12:05:34;;;;;;;1.35;0.80;;;;;;;21.96;24.37;102383.47;4958757;28;20027;-74
2022/05/06 12:08:00;;;;;;;1.52;0.73;;;;;;;23.00;24.23;102388.94;4954778;28;20046;-74
2022/05/06 12:10:28;;;;;;;2.53;0.65;;;;;;;22.56;23.34;102381.31;4965372;28;20030;-74